sensor_id;sensor_type;location;lat;lon;timestamp;P1;durP1;ratioP1;P2;durP2;ratioP2
9506;SDS011;4791;47.528;9.372;2024-01-07T00:08:31;3.75;;;2.92;;
9506;SDS011;4791;47.528;9.372;2024-01-07T00:23:31;3.72;;;2.67;;
9506;SDS011;4791;47.528;9.372;2024-01-07T00:38:32;3.38;;;2.95;;
9506;SDS011;4791;47.528;9.372;2024-01-07T00:53:32;4.30;;;2.95;;
9506;SDS011;4791;47.528;9.372;2024-01-07T01:08:32;4.40;;;2.78;;
9506;SDS011;4791;47.528;9.372;2024-01-07T01:23:33;3.58;;;2.88;;
9506;SDS011;4791;47.528;9.372;2024-01-07T01:38:33;3.42;;;3.10;;
9506;SDS011;4791;47.528;9.372;2024-01-07T01:53:33;3.75;;;3.28;;
9506;SDS011;4791;47.528;9.372;2024-01-07T02:08:34;3.83;;;3.38;;
9506;SDS011;4791;47.528;9.372;2024-01-07T02:23:34;4.18;;;3.13;;
9506;SDS011;4791;47.528;9.372;2024-01-07T02:38:37;3.92;;;3.53;;
9506;SDS011;4791;47.528;9.372;2024-01-07T02:53:37;4.35;;;3.60;;
9506;SDS011;4791;47.528;9.372;2024-01-07T03:08:38;4.00;;;3.13;;
9506;SDS011;4791;47.528;9.372;2024-01-07T03:23:40;4.32;;;3.65;;
9506;SDS011;4791;47.528;9.372;2024-01-07T03:38:41;4.13;;;3.45;;
9506;SDS011;4791;47.528;9.372;2024-01-07T03:53:41;4.45;;;3.80;;
9506;SDS011;4791;47.528;9.372;2024-01-07T04:08:42;4.70;;;3.70;;
9506;SDS011;4791;47.528;9.372;2024-01-07T04:23:42;5.82;;;4.20;;
9506;SDS011;4791;47.528;9.372;2024-01-07T04:53:44;6.03;;;4.38;;
9506;SDS011;4791;47.528;9.372;2024-01-07T05:08:44;4.47;;;3.47;;
9506;SDS011;4791;47.528;9.372;2024-01-07T05:23:44;5.18;;;4.18;;
9506;SDS011;4791;47.528;9.372;2024-01-07T05:38:45;5.85;;;4.15;;
9506;SDS011;4791;47.528;9.372;2024-01-07T05:53:45;6.30;;;4.57;;
9506;SDS011;4791;47.528;9.372;2024-01-07T06:08:46;6.32;;;4.50;;
9506;SDS011;4791;47.528;9.372;2024-01-07T06:23:46;5.55;;;4.18;;
9506;SDS011;4791;47.528;9.372;2024-01-07T06:38:47;5.18;;;3.95;;
9506;SDS011;4791;47.528;9.372;2024-01-07T06:53:47;5.38;;;4.65;;
9506;SDS011;4791;47.528;9.372;2024-01-07T07:23:49;5.15;;;4.50;;
9506;SDS011;4791;47.528;9.372;2024-01-07T07:38:49;5.78;;;4.68;;
9506;SDS011;4791;47.528;9.372;2024-01-07T07:53:49;6.35;;;4.78;;
9506;SDS011;4791;47.528;9.372;2024-01-07T08:08:50;5.10;;;4.07;;
9506;SDS011;4791;47.528;9.372;2024-01-07T08:23:50;5.13;;;3.90;;
9506;SDS011;4791;47.528;9.372;2024-01-07T08:38:53;5.95;;;4.95;;
9506;SDS011;4791;47.528;9.372;2024-01-07T08:53:53;6.90;;;6.20;;
9506;SDS011;4791;47.528;9.372;2024-01-07T09:23:55;5.93;;;5.00;;
9506;SDS011;4791;47.528;9.372;2024-01-07T09:38:55;8.85;;;6.50;;
9506;SDS011;4791;47.528;9.372;2024-01-07T09:53:57;7.68;;;6.30;;
9506;SDS011;4791;47.528;9.372;2024-01-07T10:08:58;6.60;;;5.88;;
9506;SDS011;4791;47.528;9.372;2024-01-07T10:24:09;7.57;;;6.30;;
9506;SDS011;4791;47.528;9.372;2024-01-07T10:39:10;6.77;;;5.53;;
9506;SDS011;4791;47.528;9.372;2024-01-07T10:54:10;7.78;;;6.30;;
9506;SDS011;4791;47.528;9.372;2024-01-07T11:39:44;7.75;;;5.55;;
9506;SDS011;4791;47.528;9.372;2024-01-07T11:54:45;6.32;;;5.28;;
9506;SDS011;4791;47.528;9.372;2024-01-07T12:09:50;6.32;;;4.68;;
9506;SDS011;4791;47.528;9.372;2024-01-07T12:25:02;5.82;;;4.35;;
9506;SDS011;4791;47.528;9.372;2024-01-07T12:40:03;6.40;;;4.28;;
9506;SDS011;4791;47.528;9.372;2024-01-07T12:55:04;4.38;;;3.38;;
9506;SDS011;4791;47.528;9.372;2024-01-07T13:10:06;6.20;;;3.70;;
9506;SDS011;4791;47.528;9.372;2024-01-07T13:25:09;5.18;;;3.75;;
9506;SDS011;4791;47.528;9.372;2024-01-07T13:40:10;4.03;;;3.33;;
9506;SDS011;4791;47.528;9.372;2024-01-07T13:55:12;4.40;;;3.50;;
9506;SDS011;4791;47.528;9.372;2024-01-07T14:10:13;4.33;;;3.17;;
9506;SDS011;4791;47.528;9.372;2024-01-07T14:25:13;5.57;;;3.67;;
9506;SDS011;4791;47.528;9.372;2024-01-07T14:40:14;5.18;;;3.53;;
9506;SDS011;4791;47.528;9.372;2024-01-07T14:55:15;11.38;;;6.88;;
9506;SDS011;4791;47.528;9.372;2024-01-07T15:10:16;4.93;;;3.88;;
9506;SDS011;4791;47.528;9.372;2024-01-07T15:25:19;6.25;;;4.70;;
9506;SDS011;4791;47.528;9.372;2024-01-07T15:40:20;5.57;;;4.63;;
9506;SDS011;4791;47.528;9.372;2024-01-07T15:55:20;6.15;;;4.55;;
9506;SDS011;4791;47.528;9.372;2024-01-07T16:10:21;6.72;;;3.95;;
9506;SDS011;4791;47.528;9.372;2024-01-07T16:25:21;6.10;;;4.07;;
9506;SDS011;4791;47.528;9.372;2024-01-07T16:40:22;7.28;;;4.90;;
9506;SDS011;4791;47.528;9.372;2024-01-07T16:55:22;5.75;;;4.72;;
9506;SDS011;4791;47.528;9.372;2024-01-07T17:10:23;6.93;;;5.28;;
9506;SDS011;4791;47.528;9.372;2024-01-07T17:25:23;7.03;;;5.32;;
9506;SDS011;4791;47.528;9.372;2024-01-07T17:40:26;7.97;;;5.93;;
9506;SDS011;4791;47.528;9.372;2024-01-07T17:55:27;6.75;;;5.60;;
9506;SDS011;4791;47.528;9.372;2024-01-07T18:10:27;8.52;;;6.30;;
9506;SDS011;4791;47.528;9.372;2024-01-07T18:25:27;9.55;;;6.82;;
9506;SDS011;4791;47.528;9.372;2024-01-07T18:40:28;8.48;;;6.53;;
9506;SDS011;4791;47.528;9.372;2024-01-07T18:55:30;9.55;;;7.43;;
9506;SDS011;4791;47.528;9.372;2024-01-07T19:10:31;10.15;;;7.30;;
9506;SDS011;4791;47.528;9.372;2024-01-07T19:25:32;9.80;;;7.82;;
9506;SDS011;4791;47.528;9.372;2024-01-07T19:40:33;8.57;;;7.03;;
9506;SDS011;4791;47.528;9.372;2024-01-07T19:55:34;9.50;;;8.10;;
9506;SDS011;4791;47.528;9.372;2024-01-07T20:10:34;9.55;;;6.72;;
9506;SDS011;4791;47.528;9.372;2024-01-07T20:40:37;10.75;;;8.10;;
9506;SDS011;4791;47.528;9.372;2024-01-07T20:55:40;9.40;;;7.32;;
9506;SDS011;4791;47.528;9.372;2024-01-07T21:10:42;9.88;;;6.40;;
9506;SDS011;4791;47.528;9.372;2024-01-07T21:25:43;9.32;;;7.22;;
9506;SDS011;4791;47.528;9.372;2024-01-07T21:40:44;10.68;;;7.63;;
9506;SDS011;4791;47.528;9.372;2024-01-07T21:55:45;7.38;;;6.45;;
9506;SDS011;4791;47.528;9.372;2024-01-07T22:10:45;9.48;;;7.35;;
9506;SDS011;4791;47.528;9.372;2024-01-07T22:25:45;7.43;;;6.70;;
9506;SDS011;4791;47.528;9.372;2024-01-07T22:40:48;9.35;;;7.03;;
9506;SDS011;4791;47.528;9.372;2024-01-07T22:55:49;9.48;;;6.82;;
9506;SDS011;4791;47.528;9.372;2024-01-07T23:10:49;9.15;;;6.95;;
9506;SDS011;4791;47.528;9.372;2024-01-07T23:25:49;7.57;;;6.00;;
9506;SDS011;4791;47.528;9.372;2024-01-07T23:40:50;8.38;;;6.05;;
9506;SDS011;4791;47.528;9.372;2024-01-07T23:55:50;8.88;;;6.50;;
